Desert Hot Springs, CA (92240)

9:18 AM PST on February 14, 2016 (GMT -0800)
Mission Lakes | | Change Station
CLOSE
Current Station
Personal Weather Station
Location: Desert Hot Springs, CA
Elevation: 1243 ft
Nearby Weather Stations
Active Advisory: Wind Advisory

Elev 1243 ft 33.98 °N, 116.54 °W | Updated 1 minute ago

Clear
Clear
79.7 °F
Feels Like 78 °F
N
2.2
Wind Variable Wind from West

Today
High -- | Low -- °F
--% Chance of Precip.
Yesterday
High -- | Low -- °F
Precip. -- in
Pressure 30.06 in
Visibility 10.0 miles
Clouds Clear
Heat Index 78 °F
Dew Point 24 °F
Humidity 13%
Rainfall 0.00 in
Snow Depth Not available.
6:32 AM 5:28 PM
Waxing Crescent, 43% visible
METAR KPSP 141653Z VRB03KT 10SM CLR 23/M02 A3006 RMK AO2 SLP178 T02281017
Pressure 30.06 in
Visibility 10.0 miles
Clouds Clear
Heat Index 78 °F
Dew Point 24 °F
Humidity 13%
Rainfall 0.00 in
Snow Depth Not available.
6:32 AM 5:28 PM
Waxing Crescent, 43% visible
METAR KPSP 141653Z VRB03KT 10SM CLR 23/M02 A3006 RMK AO2 SLP178 T02281017

10-Day Weather Forecast

Almanac

Astronomy

Feb. 14, 2016 Rise Set
Actual Time
Civil Twilight
Nautical Twilight
Astronomical Twilight
Moon
Length of Visible Light
Length of Day
Tomorrow will be .
, % of the Moon is Illuminated

Today's Extremes

State Highs State Lows

Community

WunderPhotos

Upload Photos

1,892,853 photos uploaded!

WunderBlog® & News

Nearby

Air Quality

  Air Quality AQ Index Pollutant
Not available.

Snow Depth

Station Depth Elevation

Earthquake Activity

City Distance Mag. Time & Date
Minimum magnitude displayed is 2.5.

Coastal Water Temperatures

Place Temperature

Stations

Nearby Weather Stations

Station Location Temp. Windchill Dew Point Humidity Wind Precip. Elev Updated Type
                   

Watches & Warnings

Wind Advisory
Issued: 7:53 AM PST Feb. 14, 2016 – National Weather Service

... Wind Advisory remains in effect from 6 PM this evening to 2 PM
PST Monday...

* winds... areas of northeast winds 20 to 30 mph with gusts to 50
mph. Isolated gusts to 60 mph possible below the Cajon Pass and
near the coastal foothills of the Santa Ana Mountains.

* Timing... locally gusty winds developing today with the strongest
winds late tonight into Monday... weakening Monday afternoon.

* Location... near coastal foothills and below passes and canyons.

* Visibility... locally reduced in blowing dust.

* Impacts... the winds will make driving difficult... especially
for motorists with high profile vehicles. Watch for broken
tree limbs and other debris.

Precautionary/preparedness actions...

A Wind Advisory means that winds of 35 mph are expected. Winds
this strong can make driving difficult... especially for high
profile vehicles. Use extra caution.